createdAt,value
2023-09-06T00:01:43.767Z,10.11
2023-09-06T00:04:11.080Z,10.03
2023-09-06T00:06:37.682Z,9.93
2023-09-06T00:09:05.175Z,9.90
2023-09-06T00:11:31.898Z,9.91
2023-09-06T00:13:58.294Z,9.87
2023-09-06T00:16:24.687Z,9.85
2023-09-06T00:18:51.954Z,9.87
2023-09-06T00:21:18.620Z,9.98
2023-09-06T00:23:45.074Z,9.93
2023-09-06T00:26:11.843Z,9.89
2023-09-06T00:28:38.953Z,9.91
2023-09-06T00:31:05.441Z,9.82
2023-09-06T00:33:34.919Z,9.79
2023-09-06T00:36:03.744Z,9.73
2023-09-06T00:38:30.504Z,9.65
2023-09-06T00:40:57.582Z,9.60
2023-09-06T00:43:23.966Z,9.55
2023-09-06T00:45:52.398Z,9.49
2023-09-06T00:48:28.534Z,9.46
2023-09-06T00:50:56.861Z,9.47
2023-09-06T00:53:26.377Z,9.49
2023-09-06T00:55:53.529Z,9.61
2023-09-06T00:58:21.259Z,9.72
2023-09-06T01:00:50.294Z,9.70
2023-09-06T01:03:18.367Z,9.73
2023-09-06T01:05:44.788Z,9.68
2023-09-06T01:08:14.420Z,9.64
2023-09-06T01:10:41.200Z,9.58
2023-09-06T01:13:07.596Z,9.53
2023-09-06T01:15:34.651Z,9.37
2023-09-06T01:18:06.336Z,9.34
2023-09-06T01:20:43.630Z,9.29
2023-09-06T01:23:32.163Z,9.33
2023-09-06T01:25:58.619Z,9.21
2023-09-06T01:28:29.206Z,9.24
2023-09-06T01:30:56.847Z,9.35
2023-09-06T01:33:23.847Z,9.35
2023-09-06T01:35:50.836Z,9.37
2023-09-06T01:38:17.851Z,9.28
2023-09-06T01:40:45.003Z,9.20
2023-09-06T01:43:11.668Z,9.11
2023-09-06T01:45:40.174Z,9.14
2023-09-06T01:48:06.734Z,9.14
2023-09-06T01:50:33.097Z,9.18
2023-09-06T01:52:59.871Z,9.11
2023-09-06T01:55:26.259Z,9.03
2023-09-06T01:57:52.692Z,8.87
2023-09-06T02:00:28.954Z,8.73
2023-09-06T02:02:56.125Z,8.72
2023-09-06T02:05:23.285Z,8.75
2023-09-06T02:07:51.391Z,8.75
2023-09-06T02:10:18.520Z,8.74
2023-09-06T02:12:45.824Z,8.69
2023-09-06T02:15:16.194Z,8.76
2023-09-06T02:17:44.176Z,8.79
2023-09-06T02:20:18.986Z,8.85
2023-09-06T02:22:45.764Z,8.76
2023-09-06T02:25:13.898Z,8.70
2023-09-06T02:27:41.756Z,8.63
2023-09-06T02:30:09.232Z,8.66
2023-09-06T02:32:35.769Z,8.63
2023-09-06T02:35:02.741Z,8.63
2023-09-06T02:37:29.160Z,8.66
2023-09-06T02:39:55.579Z,8.65
2023-09-06T02:42:23.234Z,8.60
2023-09-06T02:44:49.674Z,8.64
2023-09-06T02:47:16.283Z,8.54
2023-09-06T02:49:47.338Z,8.57
2023-09-06T02:52:29.298Z,8.56
2023-09-06T02:54:59.158Z,8.60
2023-09-06T02:57:29.868Z,8.61
2023-09-06T02:59:56.257Z,8.60
2023-09-06T03:02:25.648Z,8.60
2023-09-06T03:04:56.280Z,8.62
2023-09-06T03:07:23.187Z,8.62
2023-09-06T03:09:51.183Z,8.62
2023-09-06T03:12:17.862Z,8.64
2023-09-06T03:14:49.148Z,8.52
2023-09-06T03:17:19.761Z,8.54
2023-09-06T03:19:49.135Z,8.56
2023-09-06T03:22:16.609Z,8.50
2023-09-06T03:24:44.428Z,8.42
2023-09-06T03:27:16.763Z,8.42
2023-09-06T03:29:47.608Z,8.41
2023-09-06T03:32:14.484Z,8.42
2023-09-06T03:34:41.864Z,8.40
2023-09-06T03:37:12.401Z,8.37
2023-09-06T03:39:42.409Z,8.33
2023-09-06T03:42:09.622Z,8.36
2023-09-06T03:44:37.449Z,8.35
2023-09-06T03:47:14.573Z,8.35
2023-09-06T03:49:42.459Z,8.35
2023-09-06T03:52:08.952Z,8.30
2023-09-06T03:54:35.817Z,8.29
2023-09-06T03:57:03.843Z,8.29
2023-09-06T03:59:32.930Z,8.28
2023-09-06T04:01:59.687Z,8.25
2023-09-06T04:04:26.688Z,8.18
2023-09-06T04:06:53.271Z,8.17
2023-09-06T04:09:19.860Z,8.30
2023-09-06T04:11:48.134Z,8.25
2023-09-06T04:14:15.293Z,8.17
2023-09-06T04:16:41.747Z,8.22
2023-09-06T04:19:08.220Z,8.15
2023-09-06T04:21:34.652Z,8.08
2023-09-06T04:24:01.059Z,8.03
2023-09-06T04:26:27.845Z,8.04
2023-09-06T04:28:54.306Z,7.99
2023-09-06T04:31:20.806Z,8.00
2023-09-06T04:33:47.749Z,7.97
2023-09-06T04:36:14.115Z,7.89
2023-09-06T04:38:40.556Z,7.86
2023-09-06T04:41:07.359Z,7.85
2023-09-06T04:43:34.217Z,7.84
2023-09-06T04:46:01.019Z,7.81
2023-09-06T04:48:28.263Z,7.87
2023-09-06T04:50:57.545Z,7.89
2023-09-06T04:53:23.975Z,7.91
2023-09-06T04:55:51.289Z,7.89
2023-09-06T04:58:19.185Z,7.93
2023-09-06T05:00:48.889Z,7.99
2023-09-06T05:03:19.546Z,7.98
2023-09-06T05:05:47.399Z,7.97
2023-09-06T05:08:14.971Z,7.86
2023-09-06T05:10:41.892Z,7.88
2023-09-06T05:13:09.727Z,7.90
2023-09-06T05:15:37.346Z,7.94
2023-09-06T05:18:09.673Z,8.01
2023-09-06T05:20:39.025Z,8.05
2023-09-06T05:23:12.417Z,8.16
2023-09-06T05:25:40.092Z,8.21
2023-09-06T05:28:10.281Z,8.16
2023-09-06T05:30:41.810Z,8.25
2023-09-06T05:33:08.423Z,8.35
2023-09-06T05:35:35.446Z,8.45
2023-09-06T05:38:05.848Z,8.57
2023-09-06T05:40:34.387Z,8.48
2023-09-06T05:43:01.124Z,8.46
2023-09-06T05:45:28.067Z,8.56
2023-09-06T05:47:54.903Z,8.63
2023-09-06T05:50:21.634Z,8.70
2023-09-06T05:52:48.865Z,8.99
2023-09-06T05:55:15.859Z,9.01
2023-09-06T05:57:42.503Z,9.25
2023-09-06T06:00:14.365Z,9.28
2023-09-06T06:02:41.302Z,9.44
2023-09-06T06:05:08.298Z,9.65
2023-09-06T06:07:34.920Z,9.69
2023-09-06T06:10:01.328Z,9.93
2023-09-06T06:12:28.212Z,10.83
2023-09-06T06:14:54.971Z,12.15
2023-09-06T06:17:21.425Z,13.79
2023-09-06T06:19:49.314Z,15.00
2023-09-06T06:22:16.147Z,15.78
2023-09-06T06:24:45.515Z,16.76
2023-09-06T06:27:12.168Z,17.77
2023-09-06T06:29:39.761Z,17.87
2023-09-06T06:32:06.599Z,18.61
2023-09-06T06:34:33.109Z,19.20
2023-09-06T06:36:59.880Z,19.64
2023-09-06T06:39:27.272Z,20.27
2023-09-06T06:41:53.636Z,21.01
2023-09-06T06:44:20.454Z,21.15
2023-09-06T06:46:46.922Z,21.64
2023-09-06T06:49:13.326Z,21.86
2023-09-06T06:51:43.575Z,21.75
2023-09-06T06:54:11.747Z,22.59
2023-09-06T06:56:38.914Z,23.07
2023-09-06T06:59:05.910Z,23.41
2023-09-06T07:01:32.554Z,24.32
2023-09-06T07:03:59.612Z,23.47
2023-09-06T07:06:27.542Z,22.63
2023-09-06T07:08:55.705Z,23.85
2023-09-06T07:11:22.447Z,24.87
2023-09-06T07:13:50.625Z,24.98
2023-09-06T07:16:19.299Z,24.88
2023-09-06T07:18:47.473Z,24.82
2023-09-06T07:21:15.421Z,24.69
2023-09-06T07:23:41.910Z,24.49
2023-09-06T07:26:08.601Z,24.79
2023-09-06T07:28:45.987Z,23.93
2023-09-06T07:31:13.721Z,23.62
2023-09-06T07:33:40.101Z,24.69
2023-09-06T07:36:07.530Z,24.93
2023-09-06T07:38:34.367Z,24.59
2023-09-06T07:41:02.339Z,23.16
2023-09-06T07:43:30.065Z,25.05
2023-09-06T07:45:57.831Z,25.21
2023-09-06T07:48:26.673Z,24.75
2023-09-06T07:50:54.071Z,25.50
2023-09-06T07:53:20.610Z,27.52
2023-09-06T07:55:47.619Z,26.28
2023-09-06T07:58:15.477Z,27.03
2023-09-06T08:00:42.616Z,26.67
2023-09-06T08:03:09.506Z,26.21
2023-09-06T08:05:36.803Z,25.20
2023-09-06T08:08:05.712Z,25.67
2023-09-06T08:10:32.190Z,24.43
2023-09-06T08:12:58.997Z,24.47
2023-09-06T08:15:25.507Z,26.40
2023-09-06T08:17:52.453Z,26.43
2023-09-06T08:20:19.206Z,26.49
2023-09-06T08:22:46.425Z,26.23
2023-09-06T08:25:18.297Z,27.45
2023-09-06T08:27:45.288Z,28.08
2023-09-06T08:30:13.961Z,28.73
2023-09-06T08:32:42.191Z,28.16
2023-09-06T08:35:10.246Z,28.29
2023-09-06T08:37:36.944Z,28.53
2023-09-06T08:40:06.713Z,29.00
2023-09-06T08:42:37.415Z,28.55
2023-09-06T08:45:06.779Z,28.91
2023-09-06T08:47:34.098Z,28.13
2023-09-06T08:50:01.107Z,25.65
2023-09-06T08:52:29.072Z,26.10
2023-09-06T08:54:55.560Z,25.82
2023-09-06T08:57:23.252Z,25.98
2023-09-06T08:59:50.153Z,26.98
2023-09-06T09:02:17.283Z,25.99
2023-09-06T09:04:44.373Z,24.40
2023-09-06T09:07:12.342Z,25.97
2023-09-06T09:10:03.132Z,24.73
2023-09-06T09:12:30.530Z,25.77
2023-09-06T09:15:04.479Z,26.77
2023-09-06T09:17:53.190Z,27.98
2023-09-06T09:20:23.778Z,26.77
2023-09-06T09:22:51.967Z,26.77
2023-09-06T09:25:24.276Z,26.76
2023-09-06T09:27:59.527Z,26.74
2023-09-06T09:30:28.869Z,26.60
2023-09-06T09:33:02.491Z,27.28
2023-09-06T09:35:29.347Z,27.55
2023-09-06T09:37:57.633Z,28.13
2023-09-06T09:40:52.343Z,28.04
2023-09-06T09:43:25.547Z,27.36
2023-09-06T09:45:52.404Z,27.46
2023-09-06T09:48:21.226Z,27.10
2023-09-06T09:50:51.466Z,28.17
2023-09-06T09:53:24.553Z,27.87
2023-09-06T09:55:54.807Z,27.23
2023-09-06T09:58:21.910Z,28.30
2023-09-06T10:00:52.286Z,27.14
2023-09-06T10:03:19.903Z,27.78
2023-09-06T10:05:48.793Z,28.45
2023-09-06T10:08:18.885Z,28.70
2023-09-06T10:10:45.814Z,28.57
2023-09-06T10:13:15.838Z,28.60
2023-09-06T10:15:44.945Z,28.70
2023-09-06T10:18:12.347Z,28.98
2023-09-06T10:20:40.370Z,28.02
2023-09-06T10:23:08.652Z,28.32
2023-09-06T10:25:41.013Z,29.46
2023-09-06T10:28:08.566Z,29.42
2023-09-06T10:30:45.254Z,31.43
2023-09-06T10:33:38.096Z,31.97
2023-09-06T10:36:10.066Z,29.87
2023-09-06T10:38:52.284Z,30.36
2023-09-06T10:41:19.967Z,29.58
2023-09-06T10:43:57.000Z,29.06
2023-09-06T10:46:25.802Z,28.36
2023-09-06T10:49:22.451Z,29.23
2023-09-06T10:51:55.861Z,29.78
2023-09-06T10:54:35.643Z,29.58
2023-09-06T10:57:06.315Z,29.14
2023-09-06T10:59:40.195Z,28.21
2023-09-06T11:02:10.760Z,28.34
2023-09-06T11:04:37.761Z,28.76
2023-09-06T11:07:11.308Z,29.06
2023-09-06T11:09:51.754Z,29.41
2023-09-06T11:12:18.504Z,29.13
2023-09-06T11:14:48.881Z,28.91
2023-09-06T11:17:23.302Z,29.56
2023-09-06T11:19:49.979Z,30.44
2023-09-06T11:22:17.691Z,30.64
2023-09-06T11:24:44.852Z,30.15
2023-09-06T11:27:18.643Z,29.73
2023-09-06T11:29:45.142Z,29.98
2023-09-06T11:32:15.174Z,29.16
2023-09-06T11:34:44.907Z,29.31
2023-09-06T11:37:16.178Z,30.05
2023-09-06T11:39:44.656Z,30.92
2023-09-06T11:42:15.604Z,30.22
2023-09-06T11:44:49.378Z,30.84
2023-09-06T11:47:17.612Z,29.88
2023-09-06T11:49:46.714Z,30.87
2023-09-06T11:52:15.544Z,30.51
2023-09-06T11:54:43.804Z,29.66
2023-09-06T11:57:32.491Z,30.14
2023-09-06T11:59:59.001Z,30.20
2023-09-06T12:02:28.922Z,29.40
2023-09-06T12:05:12.689Z,29.97
2023-09-06T12:07:39.190Z,29.61
2023-09-06T12:10:08.215Z,29.78
2023-09-06T12:12:41.989Z,31.27
2023-09-06T12:15:15.782Z,30.60
2023-09-06T12:17:43.803Z,30.02
2023-09-06T12:20:17.610Z,29.31
2023-09-06T12:22:44.253Z,29.29
2023-09-06T12:25:10.942Z,28.53
2023-09-06T12:27:37.709Z,27.37
2023-09-06T12:30:04.673Z,29.01
2023-09-06T12:32:32.794Z,29.69
2023-09-06T12:35:00.621Z,29.32
2023-09-06T12:37:27.178Z,28.10
2023-09-06T12:39:53.628Z,28.33
2023-09-06T12:42:20.471Z,28.03
2023-09-06T12:44:46.947Z,27.40
2023-09-06T12:47:13.365Z,27.43
2023-09-06T12:49:40.144Z,26.93
2023-09-06T12:52:06.677Z,26.68
2023-09-06T12:54:33.064Z,26.56
2023-09-06T12:56:59.891Z,25.48
2023-09-06T12:59:26.280Z,26.03
2023-09-06T13:01:52.865Z,25.89
2023-09-06T13:04:19.794Z,26.54
2023-09-06T13:06:46.913Z,26.83
2023-09-06T13:09:14.811Z,26.35
2023-09-06T13:11:41.765Z,25.69
2023-09-06T13:14:08.173Z,26.24
2023-09-06T13:16:34.631Z,26.34
2023-09-06T13:19:01.216Z,25.82
2023-09-06T13:21:27.802Z,26.26
2023-09-06T13:23:54.239Z,26.08
2023-09-06T13:26:20.799Z,26.32
2023-09-06T13:28:47.332Z,25.81
2023-09-06T13:31:14.051Z,25.88
2023-09-06T13:33:41.044Z,26.13
2023-09-06T13:36:07.660Z,25.96
2023-09-06T13:38:34.145Z,25.84
2023-09-06T13:41:01.002Z,25.71
2023-09-06T13:43:27.472Z,25.84
2023-09-06T13:45:54.535Z,25.95
2023-09-06T13:48:21.202Z,26.00
2023-09-06T13:50:47.779Z,26.32
2023-09-06T13:53:14.140Z,26.36
2023-09-06T13:55:40.736Z,26.28
2023-09-06T13:58:09.902Z,26.31
2023-09-06T14:00:36.412Z,25.76
2023-09-06T14:03:03.359Z,25.93
2023-09-06T14:05:30.385Z,26.15
2023-09-06T14:07:56.777Z,26.06
2023-09-06T14:10:23.217Z,26.30
2023-09-06T14:12:49.574Z,26.54
2023-09-06T14:15:16.116Z,26.59
2023-09-06T14:17:42.706Z,26.36
2023-09-06T14:20:10.645Z,26.23
2023-09-06T14:22:37.055Z,26.22
2023-09-06T14:25:03.838Z,26.23
2023-09-06T14:27:31.107Z,26.41
2023-09-06T14:29:58.998Z,26.35
2023-09-06T14:32:25.668Z,26.08
2023-09-06T14:34:52.734Z,26.11
2023-09-06T14:37:19.268Z,26.23
2023-09-06T14:39:46.006Z,26.27
2023-09-06T14:42:12.361Z,26.28
2023-09-06T14:44:38.812Z,25.84
2023-09-06T14:47:05.520Z,25.79
2023-09-06T14:49:32.021Z,25.97
2023-09-06T14:52:01.313Z,25.90
2023-09-06T14:54:28.993Z,25.97
2023-09-06T14:56:58.970Z,25.91
2023-09-06T14:59:25.410Z,25.90
2023-09-06T15:01:52.316Z,25.84
2023-09-06T15:04:18.916Z,25.70
2023-09-06T15:06:57.934Z,25.74
2023-09-06T15:09:26.528Z,25.70
2023-09-06T15:11:53.865Z,25.83
2023-09-06T15:14:20.671Z,25.95
2023-09-06T15:16:47.804Z,26.02
2023-09-06T15:19:14.677Z,25.70
2023-09-06T15:21:41.251Z,25.76
2023-09-06T15:24:08.968Z,25.39
2023-09-06T15:26:35.439Z,25.47
2023-09-06T15:29:01.793Z,25.50
2023-09-06T15:31:30.773Z,25.77
2023-09-06T15:33:57.538Z,25.73
2023-09-06T15:36:26.740Z,25.70
2023-09-06T15:38:53.576Z,25.09
2023-09-06T15:41:20.009Z,25.01
2023-09-06T15:43:46.429Z,25.05
2023-09-06T15:46:13.748Z,25.02
2023-09-06T15:48:40.267Z,24.97
2023-09-06T15:51:06.738Z,25.28
2023-09-06T15:53:33.636Z,25.18
2023-09-06T15:56:00.208Z,25.07
2023-09-06T15:58:28.459Z,24.92
2023-09-06T16:00:55.226Z,24.75
2023-09-06T16:03:21.729Z,24.80
2023-09-06T16:05:48.215Z,24.73
2023-09-06T16:08:15.154Z,24.68
2023-09-06T16:10:41.509Z,24.67
2023-09-06T16:13:07.881Z,24.79
2023-09-06T16:15:34.723Z,24.68
2023-09-06T16:18:01.264Z,24.43
2023-09-06T16:20:27.798Z,24.39
2023-09-06T16:22:54.598Z,24.29
2023-09-06T16:25:20.984Z,24.24
2023-09-06T16:27:47.429Z,24.17
2023-09-06T16:30:14.865Z,24.12
2023-09-06T16:32:41.585Z,24.13
2023-09-06T16:35:08.392Z,24.07
2023-09-06T16:37:36.684Z,23.97
2023-09-06T16:40:03.211Z,23.88
2023-09-06T16:42:29.633Z,23.85
2023-09-06T16:44:56.470Z,23.86
2023-09-06T16:47:24.267Z,23.90
2023-09-06T16:49:52.477Z,23.76
2023-09-06T16:52:19.586Z,23.65
2023-09-06T16:54:46.045Z,23.60
2023-09-06T16:57:12.433Z,23.39
2023-09-06T16:59:39.251Z,23.38
2023-09-06T17:02:05.831Z,23.25
2023-09-06T17:04:32.405Z,23.23
2023-09-06T17:06:58.913Z,23.06
2023-09-06T17:09:25.275Z,22.94
2023-09-06T17:11:51.661Z,22.84
2023-09-06T17:14:18.385Z,22.74
2023-09-06T17:16:44.931Z,22.72
2023-09-06T17:19:11.486Z,22.59
2023-09-06T17:21:40.357Z,22.50
2023-09-06T17:24:08.376Z,22.33
2023-09-06T17:26:37.345Z,22.24
2023-09-06T17:29:07.555Z,22.16
2023-09-06T17:31:35.343Z,22.10
2023-09-06T17:34:02.112Z,22.02
2023-09-06T17:36:28.912Z,21.86
2023-09-06T17:38:55.376Z,21.72
2023-09-06T17:41:24.640Z,21.57
2023-09-06T17:43:51.922Z,21.41
2023-09-06T17:46:25.886Z,21.15
2023-09-06T17:48:53.940Z,20.88
2023-09-06T17:51:20.879Z,20.73
2023-09-06T17:53:49.215Z,20.50
2023-09-06T17:56:20.744Z,20.30
2023-09-06T17:58:51.005Z,20.14
2023-09-06T18:01:19.961Z,19.98
2023-09-06T18:03:53.419Z,19.91
2023-09-06T18:06:25.411Z,19.84
2023-09-06T18:08:55.903Z,19.70
2023-09-06T18:11:22.986Z,19.63
2023-09-06T18:13:49.936Z,19.55
2023-09-06T18:16:18.087Z,19.44
2023-09-06T18:18:45.229Z,19.44
2023-09-06T18:21:14.582Z,19.34
2023-09-06T18:23:41.608Z,19.21
2023-09-06T18:26:09.123Z,19.00
2023-09-06T18:28:35.852Z,18.86
2023-09-06T18:31:03.160Z,18.60
2023-09-06T18:33:29.693Z,18.40
2023-09-06T18:35:56.545Z,18.21
2023-09-06T18:38:24.741Z,18.02
2023-09-06T18:40:54.350Z,17.80
2023-09-06T18:43:22.883Z,17.60
2023-09-06T18:45:50.193Z,17.53
2023-09-06T18:48:23.324Z,17.40
2023-09-06T18:50:50.970Z,17.22
2023-09-06T18:53:17.768Z,16.95
2023-09-06T18:55:47.982Z,16.80
2023-09-06T18:58:18.944Z,16.58
2023-09-06T19:00:45.804Z,16.55
2023-09-06T19:03:15.540Z,16.45
2023-09-06T19:05:43.510Z,16.29
2023-09-06T19:08:12.981Z,16.21
2023-09-06T19:10:41.267Z,16.10
2023-09-06T19:13:08.877Z,15.99
2023-09-06T19:15:35.236Z,15.93
2023-09-06T19:18:01.982Z,15.81
2023-09-06T19:20:28.748Z,15.80
2023-09-06T19:22:55.360Z,15.70
2023-09-06T19:25:25.947Z,15.74
2023-09-06T19:27:52.954Z,15.69
2023-09-06T19:30:19.680Z,15.53
2023-09-06T19:32:46.097Z,15.49
2023-09-06T19:35:12.837Z,15.49
2023-09-06T19:37:39.627Z,15.34
2023-09-06T19:40:06.766Z,15.32
2023-09-06T19:42:35.089Z,15.24
2023-09-06T19:45:02.206Z,15.12
2023-09-06T19:47:29.209Z,15.09
2023-09-06T19:49:56.938Z,15.05
2023-09-06T19:52:23.668Z,15.00
2023-09-06T19:54:50.533Z,14.96
2023-09-06T19:57:17.118Z,14.94
2023-09-06T19:59:44.307Z,14.87
2023-09-06T20:02:10.797Z,14.89
2023-09-06T20:04:37.839Z,14.81
2023-09-06T20:07:05.047Z,14.72
2023-09-06T20:09:32.069Z,14.60
2023-09-06T20:11:59.450Z,14.48
2023-09-06T20:14:28.721Z,14.45
2023-09-06T20:16:57.084Z,14.43
2023-09-06T20:19:24.844Z,14.37
2023-09-06T20:21:51.382Z,14.27
2023-09-06T20:24:18.165Z,14.21
2023-09-06T20:26:44.824Z,14.13
2023-09-06T20:29:11.781Z,14.09
2023-09-06T20:31:38.435Z,14.09
2023-09-06T20:34:05.623Z,14.12
2023-09-06T20:36:34.091Z,13.96
2023-09-06T20:39:00.959Z,13.89
2023-09-06T20:41:27.551Z,13.87
2023-09-06T20:43:54.045Z,13.84
2023-09-06T20:46:20.905Z,13.85
2023-09-06T20:48:47.608Z,13.78
2023-09-06T20:51:17.320Z,13.73
2023-09-06T20:53:44.469Z,13.73
2023-09-06T20:56:12.199Z,13.76
2023-09-06T20:58:39.141Z,13.76
2023-09-06T21:01:16.559Z,13.68
2023-09-06T21:03:43.806Z,13.65
2023-09-06T21:06:11.952Z,13.71
2023-09-06T21:08:38.865Z,13.72
2023-09-06T21:11:05.622Z,13.61
2023-09-06T21:13:33.639Z,13.49
2023-09-06T21:16:03.236Z,13.36
2023-09-06T21:18:31.308Z,13.30
2023-09-06T21:20:58.696Z,13.20
2023-09-06T21:23:25.454Z,13.18
2023-09-06T21:25:52.365Z,13.14
2023-09-06T21:28:18.878Z,13.19
2023-09-06T21:30:48.795Z,13.15
2023-09-06T21:33:16.122Z,13.15
2023-09-06T21:35:44.517Z,13.17
2023-09-06T21:38:12.285Z,13.19
2023-09-06T21:40:42.840Z,13.12
2023-09-06T21:43:17.560Z,13.09
2023-09-06T21:45:45.250Z,13.03
2023-09-06T21:48:12.308Z,13.06
2023-09-06T21:50:40.882Z,12.93
2023-09-06T21:53:08.144Z,12.69
2023-09-06T21:55:34.778Z,12.60
2023-09-06T21:58:09.439Z,12.53
2023-09-06T22:00:36.607Z,12.51
2023-09-06T22:03:03.713Z,12.42
2023-09-06T22:05:30.181Z,12.41
2023-09-06T22:07:56.649Z,12.35
2023-09-06T22:10:23.508Z,12.32
2023-09-06T22:12:50.013Z,12.34
2023-09-06T22:15:16.750Z,12.31
2023-09-06T22:17:43.535Z,12.28
2023-09-06T22:20:10.957Z,12.25
2023-09-06T22:22:37.540Z,12.23
2023-09-06T22:25:06.016Z,12.18
2023-09-06T22:27:33.298Z,12.20
2023-09-06T22:29:59.958Z,12.22
2023-09-06T22:32:27.174Z,12.24
2023-09-06T22:34:53.782Z,12.30
2023-09-06T22:37:20.602Z,12.26
2023-09-06T22:39:47.191Z,12.26
2023-09-06T22:42:13.804Z,12.30
2023-09-06T22:44:40.725Z,12.18
2023-09-06T22:47:08.932Z,12.06
2023-09-06T22:49:38.625Z,12.02
2023-09-06T22:52:06.798Z,11.88
2023-09-06T22:54:34.311Z,11.80
2023-09-06T22:57:00.712Z,11.73
2023-09-06T22:59:27.941Z,11.63
2023-09-06T23:01:55.153Z,11.59
2023-09-06T23:04:22.064Z,11.58
2023-09-06T23:06:48.965Z,11.52
2023-09-06T23:09:19.795Z,11.52
2023-09-06T23:11:48.142Z,11.53
2023-09-06T23:14:18.281Z,11.55
2023-09-06T23:16:49.196Z,11.53
2023-09-06T23:19:28.774Z,11.48
2023-09-06T23:22:00.150Z,11.49
2023-09-06T23:24:28.764Z,11.54
2023-09-06T23:27:00.694Z,11.60
2023-09-06T23:29:35.764Z,11.58
2023-09-06T23:32:06.287Z,11.64
2023-09-06T23:34:35.170Z,11.59
2023-09-06T23:37:05.026Z,11.67
2023-09-06T23:39:34.129Z,11.64
2023-09-06T23:42:10.402Z,11.64
2023-09-06T23:44:39.153Z,11.59
2023-09-06T23:47:07.471Z,11.58
2023-09-06T23:49:36.123Z,11.49
2023-09-06T23:52:03.148Z,11.41
2023-09-06T23:54:40.701Z,11.26
2023-09-06T23:57:13.644Z,11.15
2023-09-06T23:59:40.012Z,11.16
